sensor_id;sensor_type;location;lat;lon;timestamp;P1;durP1;ratioP1;P2;durP2;ratioP2
46845;SDS011;33947;46.804;134.252;2023-03-01T00:03:02;7.72;;;4.43;;
46845;SDS011;33947;46.804;134.252;2023-03-01T00:06:07;11.40;;;8.52;;
46845;SDS011;33947;46.804;134.252;2023-03-01T00:09:11;18.90;;;7.28;;
46845;SDS011;33947;46.804;134.252;2023-03-01T00:12:16;53.50;;;15.95;;
46845;SDS011;33947;46.804;134.252;2023-03-01T00:15:19;13.98;;;6.43;;
46845;SDS011;33947;46.804;134.252;2023-03-01T00:18:24;10.55;;;6.15;;
46845;SDS011;33947;46.804;134.252;2023-03-01T00:21:28;8.15;;;4.35;;
46845;SDS011;33947;46.804;134.252;2023-03-01T00:24:33;7.38;;;4.25;;
46845;SDS011;33947;46.804;134.252;2023-03-01T00:27:37;8.00;;;4.13;;
46845;SDS011;33947;46.804;134.252;2023-03-01T00:30:41;11.00;;;6.10;;
46845;SDS011;33947;46.804;134.252;2023-03-01T00:33:45;7.40;;;4.38;;
46845;SDS011;33947;46.804;134.252;2023-03-01T00:39:54;11.45;;;5.30;;
46845;SDS011;33947;46.804;134.252;2023-03-01T00:42:58;7.93;;;4.53;;
46845;SDS011;33947;46.804;134.252;2023-03-01T00:46:04;8.52;;;4.38;;
46845;SDS011;33947;46.804;134.252;2023-03-01T00:49:11;11.55;;;6.75;;
46845;SDS011;33947;46.804;134.252;2023-03-01T00:52:14;9.82;;;4.57;;
46845;SDS011;33947;46.804;134.252;2023-03-01T00:55:19;4.75;;;3.40;;
46845;SDS011;33947;46.804;134.252;2023-03-01T00:58:23;9.60;;;6.05;;
46845;SDS011;33947;46.804;134.252;2023-03-01T01:01:29;7.40;;;4.20;;
46845;SDS011;33947;46.804;134.252;2023-03-01T01:04:34;6.05;;;3.65;;
46845;SDS011;33947;46.804;134.252;2023-03-01T01:07:38;26.50;;;15.57;;
46845;SDS011;33947;46.804;134.252;2023-03-01T01:10:43;7.03;;;4.43;;
46845;SDS011;33947;46.804;134.252;2023-03-01T01:13:48;5.22;;;3.50;;
46845;SDS011;33947;46.804;134.252;2023-03-01T01:16:53;30.20;;;10.23;;
46845;SDS011;33947;46.804;134.252;2023-03-01T01:19:58;5.45;;;3.50;;
46845;SDS011;33947;46.804;134.252;2023-03-01T01:23:05;5.95;;;3.53;;
46845;SDS011;33947;46.804;134.252;2023-03-01T01:26:12;7.15;;;3.90;;
46845;SDS011;33947;46.804;134.252;2023-03-01T01:29:18;10.60;;;5.35;;
46845;SDS011;33947;46.804;134.252;2023-03-01T01:32:25;7.95;;;4.85;;
46845;SDS011;33947;46.804;134.252;2023-03-01T01:35:29;6.13;;;3.90;;
46845;SDS011;33947;46.804;134.252;2023-03-01T01:38:34;9.77;;;3.75;;
46845;SDS011;33947;46.804;134.252;2023-03-01T01:41:40;6.13;;;3.35;;
46845;SDS011;33947;46.804;134.252;2023-03-01T01:44:46;9.63;;;5.15;;
46845;SDS011;33947;46.804;134.252;2023-03-01T01:47:50;6.95;;;4.15;;
46845;SDS011;33947;46.804;134.252;2023-03-01T01:50:57;19.02;;;12.45;;
46845;SDS011;33947;46.804;134.252;2023-03-01T01:54:06;8.70;;;4.85;;
46845;SDS011;33947;46.804;134.252;2023-03-01T01:57:17;5.30;;;3.42;;
46845;SDS011;33947;46.804;134.252;2023-03-01T02:00:26;7.32;;;3.75;;
46845;SDS011;33947;46.804;134.252;2023-03-01T02:03:32;7.63;;;5.00;;
46845;SDS011;33947;46.804;134.252;2023-03-01T02:06:41;6.35;;;4.13;;
46845;SDS011;33947;46.804;134.252;2023-03-01T02:09:55;11.57;;;5.82;;
46845;SDS011;33947;46.804;134.252;2023-03-01T02:13:00;12.43;;;6.70;;
46845;SDS011;33947;46.804;134.252;2023-03-01T02:16:10;12.02;;;6.03;;
46845;SDS011;33947;46.804;134.252;2023-03-01T02:19:59;6.28;;;4.28;;
46845;SDS011;33947;46.804;134.252;2023-03-01T02:23:19;12.13;;;4.72;;
46845;SDS011;33947;46.804;134.252;2023-03-01T02:26:25;26.52;;;11.27;;
46845;SDS011;33947;46.804;134.252;2023-03-01T02:29:44;8.75;;;5.47;;
46845;SDS011;33947;46.804;134.252;2023-03-01T02:32:49;6.15;;;3.53;;
46845;SDS011;33947;46.804;134.252;2023-03-01T02:35:55;8.27;;;3.80;;
46845;SDS011;33947;46.804;134.252;2023-03-01T02:39:00;7.50;;;4.07;;
46845;SDS011;33947;46.804;134.252;2023-03-01T02:42:07;7.38;;;4.57;;
46845;SDS011;33947;46.804;134.252;2023-03-01T02:45:16;7.28;;;4.25;;
46845;SDS011;33947;46.804;134.252;2023-03-01T02:48:20;10.25;;;4.75;;
46845;SDS011;33947;46.804;134.252;2023-03-01T02:58:07;7.47;;;4.55;;
46845;SDS011;33947;46.804;134.252;2023-03-01T03:01:13;6.78;;;4.00;;
46845;SDS011;33947;46.804;134.252;2023-03-01T03:04:19;9.20;;;4.65;;
46845;SDS011;33947;46.804;134.252;2023-03-01T03:10:30;7.13;;;4.70;;
46845;SDS011;33947;46.804;134.252;2023-03-01T03:13:37;7.50;;;4.22;;
46845;SDS011;33947;46.804;134.252;2023-03-01T03:16:52;8.65;;;4.60;;
46845;SDS011;33947;46.804;134.252;2023-03-01T03:19:57;5.45;;;3.80;;
46845;SDS011;33947;46.804;134.252;2023-03-01T03:23:01;10.40;;;5.68;;
46845;SDS011;33947;46.804;134.252;2023-03-01T03:26:06;6.53;;;4.00;;
46845;SDS011;33947;46.804;134.252;2023-03-01T03:29:10;8.27;;;4.63;;
46845;SDS011;33947;46.804;134.252;2023-03-01T03:32:15;8.38;;;4.00;;
46845;SDS011;33947;46.804;134.252;2023-03-01T03:35:20;7.55;;;4.13;;
46845;SDS011;33947;46.804;134.252;2023-03-01T03:38:35;5.00;;;3.25;;
46845;SDS011;33947;46.804;134.252;2023-03-01T03:41:40;5.45;;;3.53;;
46845;SDS011;33947;46.804;134.252;2023-03-01T03:44:44;7.03;;;4.45;;
46845;SDS011;33947;46.804;134.252;2023-03-01T03:47:48;6.78;;;3.47;;
46845;SDS011;33947;46.804;134.252;2023-03-01T03:50:53;8.82;;;5.32;;
46845;SDS011;33947;46.804;134.252;2023-03-01T03:53:59;7.15;;;3.72;;
46845;SDS011;33947;46.804;134.252;2023-03-01T03:57:03;43.70;;;24.15;;
46845;SDS011;33947;46.804;134.252;2023-03-01T04:00:09;46.53;;;25.45;;
46845;SDS011;33947;46.804;134.252;2023-03-01T04:03:18;7.22;;;3.50;;
46845;SDS011;33947;46.804;134.252;2023-03-01T04:06:23;5.93;;;3.72;;
46845;SDS011;33947;46.804;134.252;2023-03-01T04:09:28;47.80;;;13.48;;
46845;SDS011;33947;46.804;134.252;2023-03-01T04:12:33;30.92;;;10.73;;
46845;SDS011;33947;46.804;134.252;2023-03-01T04:15:38;8.40;;;5.13;;
46845;SDS011;33947;46.804;134.252;2023-03-01T04:18:43;7.57;;;4.00;;
46845;SDS011;33947;46.804;134.252;2023-03-01T04:21:47;13.80;;;7.20;;
46845;SDS011;33947;46.804;134.252;2023-03-01T04:24:51;34.15;;;12.43;;
46845;SDS011;33947;46.804;134.252;2023-03-01T04:27:55;6.53;;;3.53;;
46845;SDS011;33947;46.804;134.252;2023-03-01T04:31:02;29.90;;;10.23;;
46845;SDS011;33947;46.804;134.252;2023-03-01T04:34:18;9.35;;;4.32;;
46845;SDS011;33947;46.804;134.252;2023-03-01T04:37:23;21.50;;;8.60;;
46845;SDS011;33947;46.804;134.252;2023-03-01T04:40:28;19.00;;;7.78;;
46845;SDS011;33947;46.804;134.252;2023-03-01T04:43:32;33.55;;;10.65;;
46845;SDS011;33947;46.804;134.252;2023-03-01T04:46:40;6.85;;;3.70;;
46845;SDS011;33947;46.804;134.252;2023-03-01T04:49:44;8.77;;;4.70;;
46845;SDS011;33947;46.804;134.252;2023-03-01T04:52:48;9.52;;;4.30;;
46845;SDS011;33947;46.804;134.252;2023-03-01T04:55:53;39.35;;;9.95;;
46845;SDS011;33947;46.804;134.252;2023-03-01T04:58:58;7.45;;;4.05;;
46845;SDS011;33947;46.804;134.252;2023-03-01T05:02:04;6.72;;;3.42;;
46845;SDS011;33947;46.804;134.252;2023-03-01T05:05:08;7.18;;;4.78;;
46845;SDS011;33947;46.804;134.252;2023-03-01T05:08:13;6.20;;;3.70;;
46845;SDS011;33947;46.804;134.252;2023-03-01T05:11:21;5.45;;;3.70;;
46845;SDS011;33947;46.804;134.252;2023-03-01T05:14:26;6.63;;;3.67;;
46845;SDS011;33947;46.804;134.252;2023-03-01T05:17:33;8.68;;;3.60;;
46845;SDS011;33947;46.804;134.252;2023-03-01T05:20:37;26.98;;;12.32;;
46845;SDS011;33947;46.804;134.252;2023-03-01T05:23:42;6.53;;;3.78;;
46845;SDS011;33947;46.804;134.252;2023-03-01T05:26:47;7.37;;;3.53;;
46845;SDS011;33947;46.804;134.252;2023-03-01T05:29:51;11.13;;;4.32;;
46845;SDS011;33947;46.804;134.252;2023-03-01T05:32:55;6.18;;;3.58;;
46845;SDS011;33947;46.804;134.252;2023-03-01T05:35:59;6.40;;;3.55;;
46845;SDS011;33947;46.804;134.252;2023-03-01T05:39:04;4.97;;;3.10;;
46845;SDS011;33947;46.804;134.252;2023-03-01T05:42:10;6.85;;;3.95;;
46845;SDS011;33947;46.804;134.252;2023-03-01T05:45:15;24.45;;;9.52;;
46845;SDS011;33947;46.804;134.252;2023-03-01T05:48:21;6.45;;;3.78;;
46845;SDS011;33947;46.804;134.252;2023-03-01T05:51:25;7.55;;;3.95;;
46845;SDS011;33947;46.804;134.252;2023-03-01T05:54:29;32.17;;;12.13;;
46845;SDS011;33947;46.804;134.252;2023-03-01T05:57:34;10.05;;;4.93;;
46845;SDS011;33947;46.804;134.252;2023-03-01T06:00:38;7.72;;;4.00;;
46845;SDS011;33947;46.804;134.252;2023-03-01T06:03:43;9.32;;;4.38;;
46845;SDS011;33947;46.804;134.252;2023-03-01T06:06:47;7.10;;;3.80;;
46845;SDS011;33947;46.804;134.252;2023-03-01T06:09:51;79.15;;;24.48;;
46845;SDS011;33947;46.804;134.252;2023-03-01T06:12:56;47.95;;;15.70;;
46845;SDS011;33947;46.804;134.252;2023-03-01T06:16:03;4.90;;;3.45;;
46845;SDS011;33947;46.804;134.252;2023-03-01T06:19:09;5.70;;;3.38;;
46845;SDS011;33947;46.804;134.252;2023-03-01T06:22:14;10.75;;;5.20;;
46845;SDS011;33947;46.804;134.252;2023-03-01T06:25:20;4.13;;;3.03;;
46845;SDS011;33947;46.804;134.252;2023-03-01T06:28:26;5.05;;;3.00;;
46845;SDS011;33947;46.804;134.252;2023-03-01T06:31:30;4.32;;;3.10;;
46845;SDS011;33947;46.804;134.252;2023-03-01T06:34:35;5.97;;;3.22;;
46845;SDS011;33947;46.804;134.252;2023-03-01T06:37:40;7.40;;;5.22;;
46845;SDS011;33947;46.804;134.252;2023-03-01T06:40:44;4.90;;;3.35;;
46845;SDS011;33947;46.804;134.252;2023-03-01T06:43:54;54.80;;;16.17;;
46845;SDS011;33947;46.804;134.252;2023-03-01T06:46:59;18.15;;;16.27;;
46845;SDS011;33947;46.804;134.252;2023-03-01T06:50:04;8.45;;;5.63;;
46845;SDS011;33947;46.804;134.252;2023-03-01T06:53:09;118.40;;;30.80;;
46845;SDS011;33947;46.804;134.252;2023-03-01T06:56:13;23.73;;;9.77;;
46845;SDS011;33947;46.804;134.252;2023-03-01T06:59:19;6.13;;;3.90;;
46845;SDS011;33947;46.804;134.252;2023-03-01T07:02:23;12.20;;;8.43;;
46845;SDS011;33947;46.804;134.252;2023-03-01T07:05:27;4.57;;;3.55;;
46845;SDS011;33947;46.804;134.252;2023-03-01T07:11:37;17.75;;;14.60;;
46845;SDS011;33947;46.804;134.252;2023-03-01T07:14:41;7.55;;;5.40;;
46845;SDS011;33947;46.804;134.252;2023-03-01T07:20:53;7.93;;;3.95;;
46845;SDS011;33947;46.804;134.252;2023-03-01T07:23:57;16.75;;;9.70;;
46845;SDS011;33947;46.804;134.252;2023-03-01T07:27:01;12.77;;;7.50;;
46845;SDS011;33947;46.804;134.252;2023-03-01T07:30:06;62.60;;;34.00;;
46845;SDS011;33947;46.804;134.252;2023-03-01T07:33:11;17.45;;;7.88;;
46845;SDS011;33947;46.804;134.252;2023-03-01T07:36:15;17.65;;;8.00;;
46845;SDS011;33947;46.804;134.252;2023-03-01T07:39:19;9.57;;;4.72;;
46845;SDS011;33947;46.804;134.252;2023-03-01T07:42:24;4.78;;;3.22;;
46845;SDS011;33947;46.804;134.252;2023-03-01T07:45:28;11.88;;;6.47;;
46845;SDS011;33947;46.804;134.252;2023-03-01T07:48:32;7.03;;;4.22;;
46845;SDS011;33947;46.804;134.252;2023-03-01T07:51:37;13.90;;;7.97;;
46845;SDS011;33947;46.804;134.252;2023-03-01T07:54:42;9.93;;;4.70;;
46845;SDS011;33947;46.804;134.252;2023-03-01T07:57:50;13.02;;;4.93;;
46845;SDS011;33947;46.804;134.252;2023-03-01T08:00:54;7.60;;;4.90;;
46845;SDS011;33947;46.804;134.252;2023-03-01T08:03:58;9.57;;;5.90;;
46845;SDS011;33947;46.804;134.252;2023-03-01T08:07:04;12.90;;;5.70;;
46845;SDS011;33947;46.804;134.252;2023-03-01T08:10:08;21.13;;;10.10;;
46845;SDS011;33947;46.804;134.252;2023-03-01T08:13:14;13.32;;;7.00;;
46845;SDS011;33947;46.804;134.252;2023-03-01T08:16:18;16.75;;;7.57;;
46845;SDS011;33947;46.804;134.252;2023-03-01T08:19:23;29.13;;;14.35;;
46845;SDS011;33947;46.804;134.252;2023-03-01T08:22:27;47.33;;;25.83;;
46845;SDS011;33947;46.804;134.252;2023-03-01T08:25:31;35.60;;;17.73;;
46845;SDS011;33947;46.804;134.252;2023-03-01T08:28:36;28.23;;;13.35;;
46845;SDS011;33947;46.804;134.252;2023-03-01T08:31:40;41.47;;;16.67;;
46845;SDS011;33947;46.804;134.252;2023-03-01T08:34:47;26.15;;;9.35;;
46845;SDS011;33947;46.804;134.252;2023-03-01T08:37:52;15.32;;;8.27;;
46845;SDS011;33947;46.804;134.252;2023-03-01T08:40:58;13.45;;;6.72;;
46845;SDS011;33947;46.804;134.252;2023-03-01T08:44:04;11.95;;;6.82;;
46845;SDS011;33947;46.804;134.252;2023-03-01T08:47:09;12.95;;;7.10;;
46845;SDS011;33947;46.804;134.252;2023-03-01T08:50:13;20.33;;;8.57;;
46845;SDS011;33947;46.804;134.252;2023-03-01T08:53:17;21.38;;;9.02;;
46845;SDS011;33947;46.804;134.252;2023-03-01T08:56:22;39.35;;;12.60;;
46845;SDS011;33947;46.804;134.252;2023-03-01T08:59:26;38.25;;;12.10;;
46845;SDS011;33947;46.804;134.252;2023-03-01T09:02:32;42.65;;;14.18;;
46845;SDS011;33947;46.804;134.252;2023-03-01T09:05:40;39.67;;;14.68;;
46845;SDS011;33947;46.804;134.252;2023-03-01T09:08:45;56.28;;;20.10;;
46845;SDS011;33947;46.804;134.252;2023-03-01T09:14:55;221.23;;;47.92;;
46845;SDS011;33947;46.804;134.252;2023-03-01T09:17:59;203.82;;;47.55;;
46845;SDS011;33947;46.804;134.252;2023-03-01T09:21:05;81.60;;;24.23;;
46845;SDS011;33947;46.804;134.252;2023-03-01T09:24:12;69.32;;;21.77;;
46845;SDS011;33947;46.804;134.252;2023-03-01T09:27:18;61.35;;;20.25;;
46845;SDS011;33947;46.804;134.252;2023-03-01T09:30:23;44.88;;;17.08;;
46845;SDS011;33947;46.804;134.252;2023-03-01T09:33:28;40.92;;;18.02;;
46845;SDS011;33947;46.804;134.252;2023-03-01T09:36:35;50.15;;;16.27;;
46845;SDS011;33947;46.804;134.252;2023-03-01T09:39:40;32.35;;;15.30;;
46845;SDS011;33947;46.804;134.252;2023-03-01T09:42:49;32.65;;;13.65;;
46845;SDS011;33947;46.804;134.252;2023-03-01T09:46:12;33.58;;;13.35;;
46845;SDS011;33947;46.804;134.252;2023-03-01T09:49:25;25.15;;;10.52;;
46845;SDS011;33947;46.804;134.252;2023-03-01T09:52:36;28.30;;;11.52;;
46845;SDS011;33947;46.804;134.252;2023-03-01T10:00:07;33.10;;;15.23;;
46845;SDS011;33947;46.804;134.252;2023-03-01T10:06:21;43.15;;;14.73;;
46845;SDS011;33947;46.804;134.252;2023-03-01T10:12:42;33.42;;;13.05;;
46845;SDS011;33947;46.804;134.252;2023-03-01T10:15:49;33.35;;;13.63;;
46845;SDS011;33947;46.804;134.252;2023-03-01T10:19:02;25.15;;;12.38;;
46845;SDS011;33947;46.804;134.252;2023-03-01T10:22:17;24.75;;;12.20;;
46845;SDS011;33947;46.804;134.252;2023-03-01T10:32:15;55.83;;;20.65;;
46845;SDS011;33947;46.804;134.252;2023-03-01T10:35:27;68.18;;;28.10;;
46845;SDS011;33947;46.804;134.252;2023-03-01T10:38:53;109.93;;;44.33;;
46845;SDS011;33947;46.804;134.252;2023-03-01T10:42:01;98.72;;;35.92;;
46845;SDS011;33947;46.804;134.252;2023-03-01T10:45:16;93.32;;;36.97;;
46845;SDS011;33947;46.804;134.252;2023-03-01T10:48:32;71.53;;;30.63;;
46845;SDS011;33947;46.804;134.252;2023-03-01T10:51:36;75.93;;;30.80;;
46845;SDS011;33947;46.804;134.252;2023-03-01T10:54:54;82.00;;;32.72;;
46845;SDS011;33947;46.804;134.252;2023-03-01T10:58:18;61.63;;;25.80;;
46845;SDS011;33947;46.804;134.252;2023-03-01T11:04:30;54.30;;;24.50;;
46845;SDS011;33947;46.804;134.252;2023-03-01T11:07:46;52.90;;;22.88;;
46845;SDS011;33947;46.804;134.252;2023-03-01T11:11:06;88.90;;;28.88;;
46845;SDS011;33947;46.804;134.252;2023-03-01T11:14:24;71.20;;;31.15;;
46845;SDS011;33947;46.804;134.252;2023-03-01T11:17:31;97.03;;;33.60;;
46845;SDS011;33947;46.804;134.252;2023-03-01T11:20:54;293.33;;;104.18;;
46845;SDS011;33947;46.804;134.252;2023-03-01T11:24:00;262.67;;;93.22;;
46845;SDS011;33947;46.804;134.252;2023-03-01T11:27:18;252.38;;;90.53;;
46845;SDS011;33947;46.804;134.252;2023-03-01T11:30:34;246.05;;;88.65;;
46845;SDS011;33947;46.804;134.252;2023-03-01T11:34:16;231.05;;;95.50;;
46845;SDS011;33947;46.804;134.252;2023-03-01T11:37:38;226.98;;;86.93;;
46845;SDS011;33947;46.804;134.252;2023-03-01T11:44:13;168.75;;;62.58;;
46845;SDS011;33947;46.804;134.252;2023-03-01T11:47:39;159.48;;;54.13;;
46845;SDS011;33947;46.804;134.252;2023-03-01T11:51:04;169.23;;;62.80;;
46845;SDS011;33947;46.804;134.252;2023-03-01T12:11:20;293.88;;;101.35;;
46845;SDS011;33947;46.804;134.252;2023-03-01T12:14:51;469.48;;;151.38;;
46845;SDS011;33947;46.804;134.252;2023-03-01T12:22:09;295.23;;;100.03;;
46845;SDS011;33947;46.804;134.252;2023-03-01T12:25:34;283.23;;;93.38;;
46845;SDS011;33947;46.804;134.252;2023-03-01T12:28:56;337.48;;;110.47;;
46845;SDS011;33947;46.804;134.252;2023-03-01T12:35:47;362.90;;;117.03;;
46845;SDS011;33947;46.804;134.252;2023-03-01T12:53:03;346.58;;;114.47;;
46845;SDS011;33947;46.804;134.252;2023-03-01T12:56:10;318.42;;;111.65;;
46845;SDS011;33947;46.804;134.252;2023-03-01T13:02:50;355.88;;;104.32;;
46845;SDS011;33947;46.804;134.252;2023-03-01T13:06:06;331.50;;;102.78;;
46845;SDS011;33947;46.804;134.252;2023-03-01T13:15:53;441.20;;;137.50;;
46845;SDS011;33947;46.804;134.252;2023-03-01T13:19:15;200.05;;;64.88;;
46845;SDS011;33947;46.804;134.252;2023-03-01T13:22:30;237.50;;;78.85;;
46845;SDS011;33947;46.804;134.252;2023-03-01T13:29:11;310.50;;;103.00;;
46845;SDS011;33947;46.804;134.252;2023-03-01T13:32:31;363.60;;;114.50;;
46845;SDS011;33947;46.804;134.252;2023-03-01T13:35:46;235.43;;;77.65;;
46845;SDS011;33947;46.804;134.252;2023-03-01T13:42:00;144.80;;;50.85;;
46845;SDS011;33947;46.804;134.252;2023-03-01T13:45:12;245.63;;;76.80;;
46845;SDS011;33947;46.804;134.252;2023-03-01T13:48:24;250.02;;;78.55;;
46845;SDS011;33947;46.804;134.252;2023-03-01T13:51:31;244.80;;;77.28;;
46845;SDS011;33947;46.804;134.252;2023-03-01T13:54:36;284.50;;;89.00;;
46845;SDS011;33947;46.804;134.252;2023-03-01T13:57:44;237.52;;;78.35;;
46845;SDS011;33947;46.804;134.252;2023-03-01T14:00:58;232.45;;;74.03;;
46845;SDS011;33947;46.804;134.252;2023-03-01T14:04:23;237.93;;;75.30;;
46845;SDS011;33947;46.804;134.252;2023-03-01T14:07:30;207.57;;;66.57;;
46845;SDS011;33947;46.804;134.252;2023-03-01T14:10:43;291.80;;;87.68;;
46845;SDS011;33947;46.804;134.252;2023-03-01T14:20:44;254.90;;;86.63;;
46845;SDS011;33947;46.804;134.252;2023-03-01T14:23:54;410.60;;;129.57;;
46845;SDS011;33947;46.804;134.252;2023-03-01T14:27:01;318.33;;;104.88;;
46845;SDS011;33947;46.804;134.252;2023-03-01T14:30:17;248.73;;;79.15;;
46845;SDS011;33947;46.804;134.252;2023-03-01T14:36:45;256.02;;;81.88;;
46845;SDS011;33947;46.804;134.252;2023-03-01T14:39:50;309.47;;;96.27;;
46845;SDS011;33947;46.804;134.252;2023-03-01T14:42:57;279.85;;;91.65;;
46845;SDS011;33947;46.804;134.252;2023-03-01T14:46:04;293.92;;;91.93;;
46845;SDS011;33947;46.804;134.252;2023-03-01T14:52:21;181.02;;;60.65;;
46845;SDS011;33947;46.804;134.252;2023-03-01T14:55:40;191.98;;;62.65;;
46845;SDS011;33947;46.804;134.252;2023-03-01T14:58:52;185.70;;;62.00;;
46845;SDS011;33947;46.804;134.252;2023-03-01T15:02:02;215.30;;;70.72;;
46845;SDS011;33947;46.804;134.252;2023-03-01T15:05:07;176.90;;;60.03;;
46845;SDS011;33947;46.804;134.252;2023-03-01T15:08:18;198.93;;;63.65;;
46845;SDS011;33947;46.804;134.252;2023-03-01T15:11:31;219.48;;;67.20;;
46845;SDS011;33947;46.804;134.252;2023-03-01T15:14:40;202.90;;;64.38;;
46845;SDS011;33947;46.804;134.252;2023-03-01T15:18:00;215.32;;;71.20;;
46845;SDS011;33947;46.804;134.252;2023-03-01T15:24:27;207.73;;;69.25;;
46845;SDS011;33947;46.804;134.252;2023-03-01T15:27:32;198.48;;;68.40;;
46845;SDS011;33947;46.804;134.252;2023-03-01T15:30:37;204.65;;;66.57;;
46845;SDS011;33947;46.804;134.252;2023-03-01T15:33:42;194.20;;;64.10;;
46845;SDS011;33947;46.804;134.252;2023-03-01T15:36:51;185.82;;;58.65;;
46845;SDS011;33947;46.804;134.252;2023-03-01T15:40:00;187.32;;;59.60;;
46845;SDS011;33947;46.804;134.252;2023-03-01T15:43:05;182.80;;;58.42;;
46845;SDS011;33947;46.804;134.252;2023-03-01T15:46:30;167.07;;;54.50;;
46845;SDS011;33947;46.804;134.252;2023-03-01T15:49:41;173.68;;;51.80;;
46845;SDS011;33947;46.804;134.252;2023-03-01T15:52:57;156.05;;;50.60;;
46845;SDS011;33947;46.804;134.252;2023-03-01T15:56:03;170.75;;;51.47;;
46845;SDS011;33947;46.804;134.252;2023-03-01T16:02:15;153.55;;;46.75;;
46845;SDS011;33947;46.804;134.252;2023-03-01T16:05:21;157.85;;;50.47;;
46845;SDS011;33947;46.804;134.252;2023-03-01T16:08:27;239.35;;;64.53;;
46845;SDS011;33947;46.804;134.252;2023-03-01T16:11:32;277.52;;;75.72;;
46845;SDS011;33947;46.804;134.252;2023-03-01T16:14:40;332.65;;;87.18;;
46845;SDS011;33947;46.804;134.252;2023-03-01T16:17:45;288.63;;;74.50;;
46845;SDS011;33947;46.804;134.252;2023-03-01T16:20:56;254.57;;;67.13;;
46845;SDS011;33947;46.804;134.252;2023-03-01T16:24:00;291.17;;;77.45;;
46845;SDS011;33947;46.804;134.252;2023-03-01T16:27:05;253.30;;;67.68;;
46845;SDS011;33947;46.804;134.252;2023-03-01T16:30:09;216.85;;;63.90;;
46845;SDS011;33947;46.804;134.252;2023-03-01T16:33:14;188.10;;;58.65;;
46845;SDS011;33947;46.804;134.252;2023-03-01T16:36:35;255.90;;;67.63;;
46845;SDS011;33947;46.804;134.252;2023-03-01T16:39:39;242.68;;;64.70;;
46845;SDS011;33947;46.804;134.252;2023-03-01T16:42:43;225.80;;;61.35;;
46845;SDS011;33947;46.804;134.252;2023-03-01T16:45:48;170.53;;;49.83;;
46845;SDS011;33947;46.804;134.252;2023-03-01T16:48:52;192.43;;;54.20;;
46845;SDS011;33947;46.804;134.252;2023-03-01T16:51:57;154.70;;;43.80;;
46845;SDS011;33947;46.804;134.252;2023-03-01T16:55:03;102.55;;;34.70;;
46845;SDS011;33947;46.804;134.252;2023-03-01T16:58:08;65.97;;;23.65;;
46845;SDS011;33947;46.804;134.252;2023-03-01T17:01:14;39.17;;;14.85;;
46845;SDS011;33947;46.804;134.252;2023-03-01T17:04:26;57.72;;;20.70;;
46845;SDS011;33947;46.804;134.252;2023-03-01T17:07:31;90.77;;;29.27;;
46845;SDS011;33947;46.804;134.252;2023-03-01T17:10:36;52.13;;;17.67;;
46845;SDS011;33947;46.804;134.252;2023-03-01T17:13:41;96.85;;;29.30;;
46845;SDS011;33947;46.804;134.252;2023-03-01T17:16:46;83.18;;;26.67;;
46845;SDS011;33947;46.804;134.252;2023-03-01T17:19:51;97.68;;;31.30;;
46845;SDS011;33947;46.804;134.252;2023-03-01T17:22:56;69.07;;;27.20;;
46845;SDS011;33947;46.804;134.252;2023-03-01T17:26:01;55.70;;;26.48;;
46845;SDS011;33947;46.804;134.252;2023-03-01T17:29:08;46.22;;;21.10;;
46845;SDS011;33947;46.804;134.252;2023-03-01T17:32:12;55.90;;;20.30;;
46845;SDS011;33947;46.804;134.252;2023-03-01T17:35:17;45.05;;;22.10;;
46845;SDS011;33947;46.804;134.252;2023-03-01T17:38:22;36.70;;;15.45;;
46845;SDS011;33947;46.804;134.252;2023-03-01T17:41:26;36.10;;;15.65;;
46845;SDS011;33947;46.804;134.252;2023-03-01T17:44:31;37.72;;;13.82;;
46845;SDS011;33947;46.804;134.252;2023-03-01T17:47:38;47.60;;;14.40;;
46845;SDS011;33947;46.804;134.252;2023-03-01T17:50:43;47.03;;;17.97;;
46845;SDS011;33947;46.804;134.252;2023-03-01T17:56:52;47.28;;;16.45;;
46845;SDS011;33947;46.804;134.252;2023-03-01T18:03:12;36.58;;;14.02;;
46845;SDS011;33947;46.804;134.252;2023-03-01T18:06:18;40.07;;;13.53;;
46845;SDS011;33947;46.804;134.252;2023-03-01T18:09:27;47.45;;;15.80;;
46845;SDS011;33947;46.804;134.252;2023-03-01T18:12:33;38.10;;;15.52;;
46845;SDS011;33947;46.804;134.252;2023-03-01T18:15:37;44.20;;;15.60;;
46845;SDS011;33947;46.804;134.252;2023-03-01T18:18:41;48.08;;;16.77;;
46845;SDS011;33947;46.804;134.252;2023-03-01T18:21:47;39.80;;;16.05;;
46845;SDS011;33947;46.804;134.252;2023-03-01T18:24:52;47.42;;;14.55;;
46845;SDS011;33947;46.804;134.252;2023-03-01T18:27:56;42.43;;;15.20;;
46845;SDS011;33947;46.804;134.252;2023-03-01T18:31:02;38.55;;;15.68;;
46845;SDS011;33947;46.804;134.252;2023-03-01T18:34:12;38.58;;;14.80;;
46845;SDS011;33947;46.804;134.252;2023-03-01T18:37:16;36.65;;;15.00;;
46845;SDS011;33947;46.804;134.252;2023-03-01T18:40:21;39.03;;;15.47;;
46845;SDS011;33947;46.804;134.252;2023-03-01T18:43:25;28.80;;;12.60;;
46845;SDS011;33947;46.804;134.252;2023-03-01T18:46:31;33.40;;;12.77;;
46845;SDS011;33947;46.804;134.252;2023-03-01T18:49:39;45.72;;;16.20;;
46845;SDS011;33947;46.804;134.252;2023-03-01T18:52:43;38.33;;;13.90;;
46845;SDS011;33947;46.804;134.252;2023-03-01T18:55:48;124.60;;;36.75;;
46845;SDS011;33947;46.804;134.252;2023-03-01T18:58:52;259.60;;;66.97;;
46845;SDS011;33947;46.804;134.252;2023-03-01T19:01:57;112.78;;;32.65;;
46845;SDS011;33947;46.804;134.252;2023-03-01T19:05:01;104.55;;;27.77;;
46845;SDS011;33947;46.804;134.252;2023-03-01T19:08:06;119.25;;;34.38;;
46845;SDS011;33947;46.804;134.252;2023-03-01T19:11:11;80.40;;;23.08;;
46845;SDS011;33947;46.804;134.252;2023-03-01T19:14:16;84.82;;;26.15;;
46845;SDS011;33947;46.804;134.252;2023-03-01T19:17:21;91.00;;;26.27;;
46845;SDS011;33947;46.804;134.252;2023-03-01T19:20:32;78.40;;;26.73;;
46845;SDS011;33947;46.804;134.252;2023-03-01T19:23:37;73.25;;;23.05;;
46845;SDS011;33947;46.804;134.252;2023-03-01T19:26:41;51.00;;;19.43;;
46845;SDS011;33947;46.804;134.252;2023-03-01T19:29:45;63.80;;;23.55;;
46845;SDS011;33947;46.804;134.252;2023-03-01T19:32:50;61.78;;;21.25;;
46845;SDS011;33947;46.804;134.252;2023-03-01T19:35:54;65.60;;;24.38;;
46845;SDS011;33947;46.804;134.252;2023-03-01T19:39:03;74.10;;;26.08;;
46845;SDS011;33947;46.804;134.252;2023-03-01T19:42:09;61.28;;;23.63;;
46845;SDS011;33947;46.804;134.252;2023-03-01T19:45:14;56.80;;;20.85;;
46845;SDS011;33947;46.804;134.252;2023-03-01T19:48:27;47.15;;;18.33;;
46845;SDS011;33947;46.804;134.252;2023-03-01T19:51:31;54.83;;;20.50;;
46845;SDS011;33947;46.804;134.252;2023-03-01T19:54:38;41.45;;;15.70;;
46845;SDS011;33947;46.804;134.252;2023-03-01T19:57:42;56.92;;;20.00;;
46845;SDS011;33947;46.804;134.252;2023-03-01T20:00:47;53.17;;;21.55;;